sensor_id;sensor_type;location;lat;lon;timestamp;temperature;humidity
11089;DHT22;5598;48.648;8.908;2023-08-24T00:01:56;21.10;88.90
11089;DHT22;5598;48.648;8.908;2023-08-24T00:04:23;21.10;89.00
11089;DHT22;5598;48.648;8.908;2023-08-24T00:06:49;21.10;88.80
11089;DHT22;5598;48.648;8.908;2023-08-24T00:09:18;21.10;88.70
11089;DHT22;5598;48.648;8.908;2023-08-24T00:11:45;21.10;89.00
11089;DHT22;5598;48.648;8.908;2023-08-24T00:14:12;21.10;88.80
11089;DHT22;5598;48.648;8.908;2023-08-24T00:16:39;20.90;88.90
11089;DHT22;5598;48.648;8.908;2023-08-24T00:19:06;20.80;89.50
11089;DHT22;5598;48.648;8.908;2023-08-24T00:21:33;20.80;89.60
11089;DHT22;5598;48.648;8.908;2023-08-24T00:24:00;20.70;89.70
11089;DHT22;5598;48.648;8.908;2023-08-24T00:26:28;20.70;90.00
11089;DHT22;5598;48.648;8.908;2023-08-24T00:28:55;20.70;90.00
11089;DHT22;5598;48.648;8.908;2023-08-24T00:31:21;20.60;89.90
11089;DHT22;5598;48.648;8.908;2023-08-24T00:33:48;20.70;89.10
11089;DHT22;5598;48.648;8.908;2023-08-24T00:36:16;20.70;88.90
11089;DHT22;5598;48.648;8.908;2023-08-24T00:38:43;20.60;89.20
11089;DHT22;5598;48.648;8.908;2023-08-24T00:41:10;20.60;89.70
11089;DHT22;5598;48.648;8.908;2023-08-24T00:43:40;20.60;89.50
11089;DHT22;5598;48.648;8.908;2023-08-24T00:46:07;20.60;89.70
11089;DHT22;5598;48.648;8.908;2023-08-24T00:48:33;20.60;90.10
11089;DHT22;5598;48.648;8.908;2023-08-24T00:51:01;20.50;90.10
11089;DHT22;5598;48.648;8.908;2023-08-24T00:53:29;20.50;90.10
11089;DHT22;5598;48.648;8.908;2023-08-24T00:55:56;20.40;90.10
11089;DHT22;5598;48.648;8.908;2023-08-24T00:58:24;20.40;90.20
11089;DHT22;5598;48.648;8.908;2023-08-24T01:00:52;20.40;90.40
11089;DHT22;5598;48.648;8.908;2023-08-24T01:03:22;20.30;90.40
11089;DHT22;5598;48.648;8.908;2023-08-24T01:05:49;20.30;90.40
11089;DHT22;5598;48.648;8.908;2023-08-24T01:08:16;20.30;90.90
11089;DHT22;5598;48.648;8.908;2023-08-24T01:10:48;20.30;90.30
11089;DHT22;5598;48.648;8.908;2023-08-24T01:13:21;20.30;90.30
11089;DHT22;5598;48.648;8.908;2023-08-24T01:15:58;20.30;90.30
11089;DHT22;5598;48.648;8.908;2023-08-24T01:18:25;20.20;90.30
11089;DHT22;5598;48.648;8.908;2023-08-24T01:20:53;20.10;90.60
11089;DHT22;5598;48.648;8.908;2023-08-24T01:23:33;20.10;90.60
11089;DHT22;5598;48.648;8.908;2023-08-24T01:26:13;20.10;90.60
11089;DHT22;5598;48.648;8.908;2023-08-24T01:28:41;20.10;90.70
11089;DHT22;5598;48.648;8.908;2023-08-24T01:31:09;20.00;90.70
11089;DHT22;5598;48.648;8.908;2023-08-24T01:33:36;19.90;90.90
11089;DHT22;5598;48.648;8.908;2023-08-24T01:36:04;20.00;90.60
11089;DHT22;5598;48.648;8.908;2023-08-24T01:38:30;20.00;91.00
11089;DHT22;5598;48.648;8.908;2023-08-24T01:41:03;20.10;91.10
11089;DHT22;5598;48.648;8.908;2023-08-24T01:43:36;20.00;91.20
11089;DHT22;5598;48.648;8.908;2023-08-24T01:46:04;20.00;91.20
11089;DHT22;5598;48.648;8.908;2023-08-24T01:48:32;19.90;91.40
11089;DHT22;5598;48.648;8.908;2023-08-24T01:51:01;19.70;91.40
11089;DHT22;5598;48.648;8.908;2023-08-24T01:53:29;19.80;91.30
11089;DHT22;5598;48.648;8.908;2023-08-24T01:55:56;19.80;91.50
11089;DHT22;5598;48.648;8.908;2023-08-24T01:58:23;19.70;91.80
11089;DHT22;5598;48.648;8.908;2023-08-24T02:00:51;19.70;91.60
11089;DHT22;5598;48.648;8.908;2023-08-24T02:03:18;19.60;91.80
11089;DHT22;5598;48.648;8.908;2023-08-24T02:05:45;19.60;91.90
11089;DHT22;5598;48.648;8.908;2023-08-24T02:08:11;19.60;91.90
11089;DHT22;5598;48.648;8.908;2023-08-24T02:10:38;19.50;91.90
11089;DHT22;5598;48.648;8.908;2023-08-24T02:13:05;19.40;92.00
11089;DHT22;5598;48.648;8.908;2023-08-24T02:15:32;19.50;92.20
11089;DHT22;5598;48.648;8.908;2023-08-24T02:18:00;19.50;92.20
11089;DHT22;5598;48.648;8.908;2023-08-24T02:20:27;19.50;92.30
11089;DHT22;5598;48.648;8.908;2023-08-24T02:22:53;19.60;92.20
11089;DHT22;5598;48.648;8.908;2023-08-24T02:25:20;19.60;92.10
11089;DHT22;5598;48.648;8.908;2023-08-24T02:27:47;19.60;91.80
11089;DHT22;5598;48.648;8.908;2023-08-24T02:30:14;19.60;91.80
11089;DHT22;5598;48.648;8.908;2023-08-24T02:32:41;19.60;91.80
11089;DHT22;5598;48.648;8.908;2023-08-24T02:35:09;19.50;91.80
11089;DHT22;5598;48.648;8.908;2023-08-24T02:37:36;19.50;91.90
11089;DHT22;5598;48.648;8.908;2023-08-24T02:40:04;19.50;92.00
11089;DHT22;5598;48.648;8.908;2023-08-24T02:42:31;19.50;92.00
11089;DHT22;5598;48.648;8.908;2023-08-24T02:44:58;19.50;92.30
11089;DHT22;5598;48.648;8.908;2023-08-24T02:47:25;19.40;92.40
11089;DHT22;5598;48.648;8.908;2023-08-24T02:49:52;19.40;92.60
11089;DHT22;5598;48.648;8.908;2023-08-24T02:52:20;19.40;92.70
11089;DHT22;5598;48.648;8.908;2023-08-24T02:54:47;19.30;92.80
11089;DHT22;5598;48.648;8.908;2023-08-24T02:57:14;19.30;92.60
11089;DHT22;5598;48.648;8.908;2023-08-24T02:59:40;19.20;92.90
11089;DHT22;5598;48.648;8.908;2023-08-24T03:02:09;19.20;93.10
11089;DHT22;5598;48.648;8.908;2023-08-24T03:04:35;19.20;93.10
11089;DHT22;5598;48.648;8.908;2023-08-24T03:07:02;19.30;93.10
11089;DHT22;5598;48.648;8.908;2023-08-24T03:09:30;19.40;93.00
11089;DHT22;5598;48.648;8.908;2023-08-24T03:11:57;19.40;93.00
11089;DHT22;5598;48.648;8.908;2023-08-24T03:14:24;19.50;93.10
11089;DHT22;5598;48.648;8.908;2023-08-24T03:16:51;19.40;93.10
11089;DHT22;5598;48.648;8.908;2023-08-24T03:19:17;19.30;93.30
11089;DHT22;5598;48.648;8.908;2023-08-24T03:21:44;19.30;93.50
11089;DHT22;5598;48.648;8.908;2023-08-24T03:24:11;19.20;93.70
11089;DHT22;5598;48.648;8.908;2023-08-24T03:26:39;19.10;93.70
11089;DHT22;5598;48.648;8.908;2023-08-24T03:29:06;19.20;93.70
11089;DHT22;5598;48.648;8.908;2023-08-24T03:31:33;19.10;93.60
11089;DHT22;5598;48.648;8.908;2023-08-24T03:33:59;19.10;94.00
11089;DHT22;5598;48.648;8.908;2023-08-24T03:36:26;19.10;93.80
11089;DHT22;5598;48.648;8.908;2023-08-24T03:38:53;19.10;93.90
11089;DHT22;5598;48.648;8.908;2023-08-24T03:41:20;19.00;93.80
11089;DHT22;5598;48.648;8.908;2023-08-24T03:43:48;19.10;93.80
11089;DHT22;5598;48.648;8.908;2023-08-24T03:46:15;19.10;93.80
11089;DHT22;5598;48.648;8.908;2023-08-24T03:48:42;19.10;93.70
11089;DHT22;5598;48.648;8.908;2023-08-24T03:51:08;19.10;93.60
11089;DHT22;5598;48.648;8.908;2023-08-24T03:53:35;19.10;93.70
11089;DHT22;5598;48.648;8.908;2023-08-24T03:56:02;19.10;93.70
11089;DHT22;5598;48.648;8.908;2023-08-24T03:58:29;19.10;93.80
11089;DHT22;5598;48.648;8.908;2023-08-24T04:00:57;19.10;93.90
11089;DHT22;5598;48.648;8.908;2023-08-24T04:03:24;19.10;93.90
11089;DHT22;5598;48.648;8.908;2023-08-24T04:05:50;19.10;94.00
11089;DHT22;5598;48.648;8.908;2023-08-24T04:08:17;19.10;94.10
11089;DHT22;5598;48.648;8.908;2023-08-24T04:10:44;19.10;94.00
11089;DHT22;5598;48.648;8.908;2023-08-24T04:13:11;19.10;94.00
11089;DHT22;5598;48.648;8.908;2023-08-24T04:15:37;19.10;93.80
11089;DHT22;5598;48.648;8.908;2023-08-24T04:18:06;19.10;93.80
11089;DHT22;5598;48.648;8.908;2023-08-24T04:20:33;19.10;94.20
11089;DHT22;5598;48.648;8.908;2023-08-24T04:22:59;19.30;94.30
11089;DHT22;5598;48.648;8.908;2023-08-24T04:25:26;19.20;94.10
11089;DHT22;5598;48.648;8.908;2023-08-24T04:27:53;19.20;93.90
11089;DHT22;5598;48.648;8.908;2023-08-24T04:30:20;19.20;94.00
11089;DHT22;5598;48.648;8.908;2023-08-24T04:32:47;19.20;94.30
11089;DHT22;5598;48.648;8.908;2023-08-24T04:35:15;19.20;94.30
11089;DHT22;5598;48.648;8.908;2023-08-24T04:37:42;19.10;94.30
11089;DHT22;5598;48.648;8.908;2023-08-24T04:40:09;19.10;94.40
11089;DHT22;5598;48.648;8.908;2023-08-24T04:42:36;19.00;94.40
11089;DHT22;5598;48.648;8.908;2023-08-24T04:45:03;19.10;94.60
11089;DHT22;5598;48.648;8.908;2023-08-24T04:47:30;19.10;94.60
11089;DHT22;5598;48.648;8.908;2023-08-24T04:49:57;19.10;94.60
11089;DHT22;5598;48.648;8.908;2023-08-24T04:52:25;19.10;94.60
11089;DHT22;5598;48.648;8.908;2023-08-24T04:54:52;19.20;94.40
11089;DHT22;5598;48.648;8.908;2023-08-24T04:57:19;19.20;94.60
11089;DHT22;5598;48.648;8.908;2023-08-24T04:59:45;19.20;94.90
11089;DHT22;5598;48.648;8.908;2023-08-24T05:02:12;19.20;94.70
11089;DHT22;5598;48.648;8.908;2023-08-24T05:04:39;19.10;94.70
11089;DHT22;5598;48.648;8.908;2023-08-24T05:07:06;19.10;95.10
11089;DHT22;5598;48.648;8.908;2023-08-24T05:09:34;19.20;95.00
11089;DHT22;5598;48.648;8.908;2023-08-24T05:12:01;19.20;95.10
11089;DHT22;5598;48.648;8.908;2023-08-24T05:14:27;19.20;94.90
11089;DHT22;5598;48.648;8.908;2023-08-24T05:16:54;19.30;95.00
11089;DHT22;5598;48.648;8.908;2023-08-24T05:19:21;19.40;95.10
11089;DHT22;5598;48.648;8.908;2023-08-24T05:21:48;19.50;95.00
11089;DHT22;5598;48.648;8.908;2023-08-24T05:24:14;19.60;94.90
11089;DHT22;5598;48.648;8.908;2023-08-24T05:26:42;19.60;94.80
11089;DHT22;5598;48.648;8.908;2023-08-24T05:29:09;19.70;94.80
11089;DHT22;5598;48.648;8.908;2023-08-24T05:31:36;19.60;94.70
11089;DHT22;5598;48.648;8.908;2023-08-24T05:34:03;19.70;94.80
11089;DHT22;5598;48.648;8.908;2023-08-24T05:36:30;19.60;94.70
11089;DHT22;5598;48.648;8.908;2023-08-24T05:38:56;19.60;94.70
11089;DHT22;5598;48.648;8.908;2023-08-24T05:41:23;19.50;94.90
11089;DHT22;5598;48.648;8.908;2023-08-24T05:43:51;19.60;95.10
11089;DHT22;5598;48.648;8.908;2023-08-24T05:46:18;19.60;95.30
11089;DHT22;5598;48.648;8.908;2023-08-24T05:48:45;19.70;95.80
11089;DHT22;5598;48.648;8.908;2023-08-24T05:51:12;19.60;95.50
11089;DHT22;5598;48.648;8.908;2023-08-24T05:53:39;19.70;95.40
11089;DHT22;5598;48.648;8.908;2023-08-24T05:56:06;19.70;95.40
11089;DHT22;5598;48.648;8.908;2023-08-24T05:58:33;19.80;95.30
11089;DHT22;5598;48.648;8.908;2023-08-24T06:01:01;19.90;95.00
11089;DHT22;5598;48.648;8.908;2023-08-24T06:03:28;19.90;95.10
11089;DHT22;5598;48.648;8.908;2023-08-24T06:06:01;19.80;95.10
11089;DHT22;5598;48.648;8.908;2023-08-24T06:08:27;19.90;95.20
11089;DHT22;5598;48.648;8.908;2023-08-24T06:10:54;20.00;95.20
11089;DHT22;5598;48.648;8.908;2023-08-24T06:13:21;20.10;95.10
11089;DHT22;5598;48.648;8.908;2023-08-24T06:15:48;20.10;94.90
11089;DHT22;5598;48.648;8.908;2023-08-24T06:18:16;20.10;95.00
11089;DHT22;5598;48.648;8.908;2023-08-24T06:20:43;20.20;95.00
11089;DHT22;5598;48.648;8.908;2023-08-24T06:23:11;20.20;94.90
11089;DHT22;5598;48.648;8.908;2023-08-24T06:25:38;20.30;95.00
11089;DHT22;5598;48.648;8.908;2023-08-24T06:28:05;20.30;94.80
11089;DHT22;5598;48.648;8.908;2023-08-24T06:30:37;20.40;94.90
11089;DHT22;5598;48.648;8.908;2023-08-24T06:33:04;20.50;94.80
11089;DHT22;5598;48.648;8.908;2023-08-24T06:35:33;20.60;94.90
11089;DHT22;5598;48.648;8.908;2023-08-24T06:38:00;20.70;95.10
11089;DHT22;5598;48.648;8.908;2023-08-24T06:40:27;20.70;95.10
11089;DHT22;5598;48.648;8.908;2023-08-24T06:42:53;20.70;95.30
11089;DHT22;5598;48.648;8.908;2023-08-24T06:45:20;20.70;95.30
11089;DHT22;5598;48.648;8.908;2023-08-24T06:47:47;20.80;95.20
11089;DHT22;5598;48.648;8.908;2023-08-24T06:50:14;20.80;95.00
11089;DHT22;5598;48.648;8.908;2023-08-24T06:52:42;20.80;95.00
11089;DHT22;5598;48.648;8.908;2023-08-24T06:55:09;20.90;95.40
11089;DHT22;5598;48.648;8.908;2023-08-24T06:57:37;21.00;95.50
11089;DHT22;5598;48.648;8.908;2023-08-24T07:00:05;21.20;96.00
11089;DHT22;5598;48.648;8.908;2023-08-24T07:02:34;21.20;96.00
11089;DHT22;5598;48.648;8.908;2023-08-24T07:05:02;21.40;96.10
11089;DHT22;5598;48.648;8.908;2023-08-24T07:07:30;21.40;95.80
11089;DHT22;5598;48.648;8.908;2023-08-24T07:09:58;21.50;95.70
11089;DHT22;5598;48.648;8.908;2023-08-24T07:12:25;21.50;95.80
11089;DHT22;5598;48.648;8.908;2023-08-24T07:14:51;21.50;95.80
11089;DHT22;5598;48.648;8.908;2023-08-24T07:17:19;21.40;95.50
11089;DHT22;5598;48.648;8.908;2023-08-24T07:19:45;21.40;95.70
11089;DHT22;5598;48.648;8.908;2023-08-24T07:22:12;21.40;96.10
11089;DHT22;5598;48.648;8.908;2023-08-24T07:24:39;21.60;95.90
11089;DHT22;5598;48.648;8.908;2023-08-24T07:27:08;21.70;95.60
11089;DHT22;5598;48.648;8.908;2023-08-24T07:29:35;21.80;95.30
11089;DHT22;5598;48.648;8.908;2023-08-24T07:32:02;21.90;95.20
11089;DHT22;5598;48.648;8.908;2023-08-24T07:34:29;22.00;95.10
11089;DHT22;5598;48.648;8.908;2023-08-24T07:36:55;22.10;95.20
11089;DHT22;5598;48.648;8.908;2023-08-24T07:39:22;22.30;94.70
11089;DHT22;5598;48.648;8.908;2023-08-24T07:41:49;22.40;94.60
11089;DHT22;5598;48.648;8.908;2023-08-24T07:44:17;22.50;94.50
11089;DHT22;5598;48.648;8.908;2023-08-24T07:46:44;22.70;93.90
11089;DHT22;5598;48.648;8.908;2023-08-24T07:49:11;22.80;93.90
11089;DHT22;5598;48.648;8.908;2023-08-24T07:51:37;23.00;93.80
11089;DHT22;5598;48.648;8.908;2023-08-24T07:54:04;23.10;93.60
11089;DHT22;5598;48.648;8.908;2023-08-24T07:56:32;23.20;93.00
11089;DHT22;5598;48.648;8.908;2023-08-24T07:58:59;23.50;92.40
11089;DHT22;5598;48.648;8.908;2023-08-24T08:01:27;23.60;91.90
11089;DHT22;5598;48.648;8.908;2023-08-24T08:03:54;23.70;92.00
11089;DHT22;5598;48.648;8.908;2023-08-24T08:06:21;23.80;92.20
11089;DHT22;5598;48.648;8.908;2023-08-24T08:08:50;24.00;92.10
11089;DHT22;5598;48.648;8.908;2023-08-24T08:11:17;24.10;91.80
11089;DHT22;5598;48.648;8.908;2023-08-24T08:13:44;24.30;91.60
11089;DHT22;5598;48.648;8.908;2023-08-24T08:16:11;24.50;91.00
11089;DHT22;5598;48.648;8.908;2023-08-24T08:18:39;24.70;90.20
11089;DHT22;5598;48.648;8.908;2023-08-24T08:21:09;24.90;88.50
11089;DHT22;5598;48.648;8.908;2023-08-24T08:23:36;25.10;88.60
11089;DHT22;5598;48.648;8.908;2023-08-24T08:26:03;25.30;87.80
11089;DHT22;5598;48.648;8.908;2023-08-24T08:28:29;25.40;87.90
11089;DHT22;5598;48.648;8.908;2023-08-24T08:30:59;25.70;87.70
11089;DHT22;5598;48.648;8.908;2023-08-24T08:33:25;25.80;86.50
11089;DHT22;5598;48.648;8.908;2023-08-24T08:35:53;26.00;85.00
11089;DHT22;5598;48.648;8.908;2023-08-24T08:38:20;26.20;84.30
11089;DHT22;5598;48.648;8.908;2023-08-24T08:40:51;26.40;84.00
11089;DHT22;5598;48.648;8.908;2023-08-24T08:43:21;26.80;82.40
11089;DHT22;5598;48.648;8.908;2023-08-24T08:45:49;27.20;81.70
11089;DHT22;5598;48.648;8.908;2023-08-24T08:48:18;27.70;80.10
11089;DHT22;5598;48.648;8.908;2023-08-24T08:50:47;28.20;79.10
11089;DHT22;5598;48.648;8.908;2023-08-24T08:53:16;28.80;77.60
11089;DHT22;5598;48.648;8.908;2023-08-24T08:55:44;29.30;75.60
11089;DHT22;5598;48.648;8.908;2023-08-24T08:58:11;29.70;74.70
11089;DHT22;5598;48.648;8.908;2023-08-24T09:00:38;30.20;74.10
11089;DHT22;5598;48.648;8.908;2023-08-24T09:03:05;30.70;72.50
11089;DHT22;5598;48.648;8.908;2023-08-24T09:05:32;31.20;71.20
11089;DHT22;5598;48.648;8.908;2023-08-24T09:07:59;31.60;69.10
11089;DHT22;5598;48.648;8.908;2023-08-24T09:10:29;31.80;68.80
11089;DHT22;5598;48.648;8.908;2023-08-24T09:12:57;31.90;68.30
11089;DHT22;5598;48.648;8.908;2023-08-24T09:15:24;32.00;68.10
11089;DHT22;5598;48.648;8.908;2023-08-24T09:17:52;32.10;69.20
11089;DHT22;5598;48.648;8.908;2023-08-24T09:20:20;32.10;68.40
11089;DHT22;5598;48.648;8.908;2023-08-24T09:22:47;32.40;68.10
11089;DHT22;5598;48.648;8.908;2023-08-24T09:25:14;32.50;67.90
11089;DHT22;5598;48.648;8.908;2023-08-24T09:27:42;32.70;66.60
11089;DHT22;5598;48.648;8.908;2023-08-24T09:30:10;32.90;66.00
11089;DHT22;5598;48.648;8.908;2023-08-24T09:32:37;33.20;65.60
11089;DHT22;5598;48.648;8.908;2023-08-24T09:35:06;33.50;63.90
11089;DHT22;5598;48.648;8.908;2023-08-24T09:37:35;33.70;63.20
11089;DHT22;5598;48.648;8.908;2023-08-24T09:40:02;33.80;63.60
11089;DHT22;5598;48.648;8.908;2023-08-24T09:42:37;33.80;63.50
11089;DHT22;5598;48.648;8.908;2023-08-24T09:45:08;34.00;63.00
11089;DHT22;5598;48.648;8.908;2023-08-24T09:47:36;34.00;62.90
11089;DHT22;5598;48.648;8.908;2023-08-24T09:50:03;34.40;61.70
11089;DHT22;5598;48.648;8.908;2023-08-24T09:52:32;34.50;61.40
11089;DHT22;5598;48.648;8.908;2023-08-24T09:55:03;34.70;62.00
11089;DHT22;5598;48.648;8.908;2023-08-24T09:57:33;34.70;62.20
11089;DHT22;5598;48.648;8.908;2023-08-24T10:00:04;34.90;60.90
11089;DHT22;5598;48.648;8.908;2023-08-24T10:02:37;35.20;61.20
11089;DHT22;5598;48.648;8.908;2023-08-24T10:05:08;35.50;60.70
11089;DHT22;5598;48.648;8.908;2023-08-24T10:07:37;35.60;59.70
11089;DHT22;5598;48.648;8.908;2023-08-24T10:10:08;35.60;59.70
11089;DHT22;5598;48.648;8.908;2023-08-24T10:12:41;35.70;59.70
11089;DHT22;5598;48.648;8.908;2023-08-24T10:15:10;35.90;60.10
11089;DHT22;5598;48.648;8.908;2023-08-24T10:17:39;36.10;59.00
11089;DHT22;5598;48.648;8.908;2023-08-24T10:20:07;36.20;59.60
11089;DHT22;5598;48.648;8.908;2023-08-24T10:22:35;36.30;59.00
11089;DHT22;5598;48.648;8.908;2023-08-24T10:25:03;36.40;60.20
11089;DHT22;5598;48.648;8.908;2023-08-24T10:27:30;36.60;59.70
11089;DHT22;5598;48.648;8.908;2023-08-24T10:29:57;36.70;59.90
11089;DHT22;5598;48.648;8.908;2023-08-24T10:32:25;36.70;59.20
11089;DHT22;5598;48.648;8.908;2023-08-24T10:34:54;36.70;59.30
11089;DHT22;5598;48.648;8.908;2023-08-24T10:37:25;36.70;59.20
11089;DHT22;5598;48.648;8.908;2023-08-24T10:39:53;36.70;59.60
11089;DHT22;5598;48.648;8.908;2023-08-24T10:42:20;36.80;59.70
11089;DHT22;5598;48.648;8.908;2023-08-24T10:44:48;37.00;58.90
11089;DHT22;5598;48.648;8.908;2023-08-24T10:47:18;36.80;59.70
11089;DHT22;5598;48.648;8.908;2023-08-24T10:49:58;36.80;59.60
11089;DHT22;5598;48.648;8.908;2023-08-24T10:52:29;36.70;59.60
11089;DHT22;5598;48.648;8.908;2023-08-24T10:54:57;36.70;59.60
11089;DHT22;5598;48.648;8.908;2023-08-24T10:57:25;36.60;59.90
11089;DHT22;5598;48.648;8.908;2023-08-24T11:00:02;36.80;60.20
11089;DHT22;5598;48.648;8.908;2023-08-24T11:02:31;36.90;60.10
11089;DHT22;5598;48.648;8.908;2023-08-24T11:05:15;37.10;59.70
11089;DHT22;5598;48.648;8.908;2023-08-24T11:07:54;37.30;59.10
11089;DHT22;5598;48.648;8.908;2023-08-24T11:10:22;37.40;59.30
11089;DHT22;5598;48.648;8.908;2023-08-24T11:13:08;37.60;59.00
11089;DHT22;5598;48.648;8.908;2023-08-24T11:15:39;37.80;58.40
11089;DHT22;5598;48.648;8.908;2023-08-24T11:18:20;37.80;58.80
11089;DHT22;5598;48.648;8.908;2023-08-24T11:20:51;37.80;58.60
11089;DHT22;5598;48.648;8.908;2023-08-24T11:23:19;37.90;58.20
11089;DHT22;5598;48.648;8.908;2023-08-24T11:25:46;37.90;58.60
11089;DHT22;5598;48.648;8.908;2023-08-24T11:28:17;37.90;58.30
11089;DHT22;5598;48.648;8.908;2023-08-24T11:30:45;37.80;58.70
11089;DHT22;5598;48.648;8.908;2023-08-24T11:33:13;37.80;58.40
11089;DHT22;5598;48.648;8.908;2023-08-24T11:35:42;37.90;58.30
11089;DHT22;5598;48.648;8.908;2023-08-24T11:38:11;38.00;58.40
11089;DHT22;5598;48.648;8.908;2023-08-24T11:40:38;38.00;57.40
11089;DHT22;5598;48.648;8.908;2023-08-24T11:43:05;38.00;57.10
11089;DHT22;5598;48.648;8.908;2023-08-24T11:45:33;37.90;57.30
11089;DHT22;5598;48.648;8.908;2023-08-24T11:48:00;37.80;57.70
11089;DHT22;5598;48.648;8.908;2023-08-24T11:50:28;37.70;57.60
11089;DHT22;5598;48.648;8.908;2023-08-24T11:52:55;37.60;58.10
11089;DHT22;5598;48.648;8.908;2023-08-24T11:55:23;37.60;58.10
11089;DHT22;5598;48.648;8.908;2023-08-24T11:57:50;37.60;58.00
11089;DHT22;5598;48.648;8.908;2023-08-24T12:00:18;37.30;58.30
11089;DHT22;5598;48.648;8.908;2023-08-24T12:02:46;37.30;58.80
11089;DHT22;5598;48.648;8.908;2023-08-24T12:05:21;37.30;58.20
11089;DHT22;5598;48.648;8.908;2023-08-24T12:07:48;37.30;57.70
11089;DHT22;5598;48.648;8.908;2023-08-24T12:10:15;37.10;57.40
11089;DHT22;5598;48.648;8.908;2023-08-24T12:12:43;36.90;58.60
11089;DHT22;5598;48.648;8.908;2023-08-24T12:15:15;36.90;58.90
11089;DHT22;5598;48.648;8.908;2023-08-24T12:17:43;36.80;57.80
11089;DHT22;5598;48.648;8.908;2023-08-24T12:20:18;36.80;58.40
11089;DHT22;5598;48.648;8.908;2023-08-24T12:22:50;36.70;58.40
11089;DHT22;5598;48.648;8.908;2023-08-24T12:25:17;36.50;58.40
11089;DHT22;5598;48.648;8.908;2023-08-24T12:27:46;36.40;58.90
11089;DHT22;5598;48.648;8.908;2023-08-24T12:30:13;36.30;59.50
11089;DHT22;5598;48.648;8.908;2023-08-24T12:32:44;36.30;58.90
11089;DHT22;5598;48.648;8.908;2023-08-24T12:35:11;36.20;58.30
11089;DHT22;5598;48.648;8.908;2023-08-24T12:37:38;36.20;59.30
11089;DHT22;5598;48.648;8.908;2023-08-24T12:40:05;36.10;58.70
11089;DHT22;5598;48.648;8.908;2023-08-24T12:42:33;36.20;58.70
11089;DHT22;5598;48.648;8.908;2023-08-24T12:45:01;36.30;59.00
11089;DHT22;5598;48.648;8.908;2023-08-24T12:47:30;36.20;59.50
11089;DHT22;5598;48.648;8.908;2023-08-24T12:49:57;36.20;59.20
11089;DHT22;5598;48.648;8.908;2023-08-24T12:52:23;36.20;59.20
11089;DHT22;5598;48.648;8.908;2023-08-24T12:54:51;36.30;57.10
11089;DHT22;5598;48.648;8.908;2023-08-24T12:57:17;36.10;58.20
11089;DHT22;5598;48.648;8.908;2023-08-24T12:59:44;36.20;57.80
11089;DHT22;5598;48.648;8.908;2023-08-24T13:02:13;36.20;58.10
11089;DHT22;5598;48.648;8.908;2023-08-24T13:04:40;36.20;57.80
11089;DHT22;5598;48.648;8.908;2023-08-24T13:07:07;36.20;58.00
11089;DHT22;5598;48.648;8.908;2023-08-24T13:09:34;36.10;56.90
11089;DHT22;5598;48.648;8.908;2023-08-24T13:12:01;36.10;57.90
11089;DHT22;5598;48.648;8.908;2023-08-24T13:14:28;36.10;57.30
11089;DHT22;5598;48.648;8.908;2023-08-24T13:16:55;36.00;57.80
11089;DHT22;5598;48.648;8.908;2023-08-24T13:19:23;36.00;58.00
11089;DHT22;5598;48.648;8.908;2023-08-24T13:21:50;35.90;57.70
11089;DHT22;5598;48.648;8.908;2023-08-24T13:24:16;36.00;58.10
11089;DHT22;5598;48.648;8.908;2023-08-24T13:26:43;36.10;58.30
11089;DHT22;5598;48.648;8.908;2023-08-24T13:29:10;36.10;57.60
11089;DHT22;5598;48.648;8.908;2023-08-24T13:31:37;36.10;57.90
11089;DHT22;5598;48.648;8.908;2023-08-24T13:34:03;36.00;58.00
11089;DHT22;5598;48.648;8.908;2023-08-24T13:36:34;35.90;58.00
11089;DHT22;5598;48.648;8.908;2023-08-24T13:39:01;35.80;58.40
11089;DHT22;5598;48.648;8.908;2023-08-24T13:41:28;35.80;58.70
11089;DHT22;5598;48.648;8.908;2023-08-24T13:43:54;35.90;58.30
11089;DHT22;5598;48.648;8.908;2023-08-24T13:46:22;36.00;58.60
11089;DHT22;5598;48.648;8.908;2023-08-24T13:48:49;36.00;58.40
11089;DHT22;5598;48.648;8.908;2023-08-24T13:51:16;36.00;59.00
11089;DHT22;5598;48.648;8.908;2023-08-24T13:53:44;35.90;58.90
11089;DHT22;5598;48.648;8.908;2023-08-24T13:56:11;35.80;58.90
11089;DHT22;5598;48.648;8.908;2023-08-24T13:58:37;35.80;58.90
11089;DHT22;5598;48.648;8.908;2023-08-24T14:01:04;35.80;58.70
11089;DHT22;5598;48.648;8.908;2023-08-24T14:03:31;35.70;59.00
11089;DHT22;5598;48.648;8.908;2023-08-24T14:05:58;35.70;59.20
11089;DHT22;5598;48.648;8.908;2023-08-24T14:08:24;35.60;59.00
11089;DHT22;5598;48.648;8.908;2023-08-24T14:10:53;35.60;59.70
11089;DHT22;5598;48.648;8.908;2023-08-24T14:13:20;35.40;59.70
11089;DHT22;5598;48.648;8.908;2023-08-24T14:15:48;35.30;59.50
11089;DHT22;5598;48.648;8.908;2023-08-24T14:18:15;35.10;60.70
11089;DHT22;5598;48.648;8.908;2023-08-24T14:20:42;35.10;60.20
11089;DHT22;5598;48.648;8.908;2023-08-24T14:23:09;35.10;61.10
11089;DHT22;5598;48.648;8.908;2023-08-24T14:25:36;35.00;61.30
11089;DHT22;5598;48.648;8.908;2023-08-24T14:28:04;35.00;60.20
11089;DHT22;5598;48.648;8.908;2023-08-24T14:30:31;35.00;60.00
11089;DHT22;5598;48.648;8.908;2023-08-24T14:32:58;34.90;60.80
11089;DHT22;5598;48.648;8.908;2023-08-24T14:35:24;34.80;60.90
11089;DHT22;5598;48.648;8.908;2023-08-24T14:37:51;34.70;61.80
11089;DHT22;5598;48.648;8.908;2023-08-24T14:40:18;34.70;60.50
11089;DHT22;5598;48.648;8.908;2023-08-24T14:42:45;34.60;62.70
11089;DHT22;5598;48.648;8.908;2023-08-24T14:45:15;34.60;63.00
11089;DHT22;5598;48.648;8.908;2023-08-24T14:47:44;34.40;62.90
11089;DHT22;5598;48.648;8.908;2023-08-24T14:50:11;34.30;63.80
11089;DHT22;5598;48.648;8.908;2023-08-24T14:52:38;34.20;64.50
11089;DHT22;5598;48.648;8.908;2023-08-24T14:55:06;33.90;67.90
11089;DHT22;5598;48.648;8.908;2023-08-24T14:57:33;33.40;72.00
11089;DHT22;5598;48.648;8.908;2023-08-24T15:00:01;32.80;76.00
11089;DHT22;5598;48.648;8.908;2023-08-24T15:02:32;32.20;78.30
11089;DHT22;5598;48.648;8.908;2023-08-24T15:04:58;31.80;79.70
11089;DHT22;5598;48.648;8.908;2023-08-24T15:07:25;31.50;79.30
11089;DHT22;5598;48.648;8.908;2023-08-24T15:09:52;31.20;84.10
11089;DHT22;5598;48.648;8.908;2023-08-24T15:12:20;30.90;83.50
11089;DHT22;5598;48.648;8.908;2023-08-24T15:14:57;30.50;83.40
11089;DHT22;5598;48.648;8.908;2023-08-24T15:17:24;30.20;84.10
11089;DHT22;5598;48.648;8.908;2023-08-24T15:19:54;30.10;85.10
11089;DHT22;5598;48.648;8.908;2023-08-24T15:22:20;30.10;84.80
11089;DHT22;5598;48.648;8.908;2023-08-24T15:24:47;30.10;84.30
11089;DHT22;5598;48.648;8.908;2023-08-24T15:27:14;30.00;84.70
11089;DHT22;5598;48.648;8.908;2023-08-24T15:29:41;30.00;83.60
11089;DHT22;5598;48.648;8.908;2023-08-24T15:32:08;29.90;82.80
11089;DHT22;5598;48.648;8.908;2023-08-24T15:34:35;29.80;83.30
11089;DHT22;5598;48.648;8.908;2023-08-24T15:37:03;29.70;84.00
11089;DHT22;5598;48.648;8.908;2023-08-24T15:39:35;29.60;84.90
11089;DHT22;5598;48.648;8.908;2023-08-24T15:42:02;29.40;85.20
11089;DHT22;5598;48.648;8.908;2023-08-24T15:44:29;29.30;86.00
11089;DHT22;5598;48.648;8.908;2023-08-24T15:46:56;29.10;86.30
11089;DHT22;5598;48.648;8.908;2023-08-24T15:49:23;29.00;86.50